createdAt,value
2018-05-12T00:02:44.144Z,12.95
2018-05-12T00:08:45.014Z,12.26
2018-05-12T00:12:45.696Z,11.94
2018-05-12T00:18:46.421Z,13.5
2018-05-12T00:22:47.202Z,12.76
2018-05-12T00:28:47.965Z,12.63
2018-05-12T00:34:48.698Z,13.18
2018-05-12T00:38:49.495Z,12.77
2018-05-12T00:44:50.165Z,13.26
2018-05-12T00:48:50.907Z,12.94
2018-05-12T00:50:51.637Z,13.29
2018-05-12T00:54:52.384Z,13.11
2018-05-12T01:00:53.118Z,13.12
2018-05-12T01:04:53.869Z,12.72
2018-05-12T01:10:54.566Z,14.59
2018-05-12T01:16:55.319Z,14.12
2018-05-12T01:20:56.019Z,13.76
2018-05-12T01:26:56.695Z,11.96
2018-05-12T01:30:57.361Z,12.71
2018-05-12T01:32:57.990Z,13.08
2018-05-12T01:36:58.701Z,13.14
2018-05-12T01:42:59.457Z,12.72
2018-05-12T01:47:00.123Z,12.83
2018-05-12T01:53:00.809Z,12.38
2018-05-12T01:59:01.670Z,12.34
2018-05-12T02:03:02.371Z,12.8
2018-05-12T02:09:03.143Z,12.39
2018-05-12T02:13:03.918Z,11.91
2018-05-12T02:19:04.673Z,12.54
2018-05-12T02:25:05.428Z,12.22
2018-05-12T02:29:06.114Z,12.65
2018-05-12T02:35:06.797Z,13.1
2018-05-12T02:39:07.590Z,13.01
2018-05-12T02:41:08.219Z,13.25
2018-05-12T02:45:09.284Z,12.76
2018-05-12T02:51:10.042Z,13.62
2018-05-12T02:55:10.763Z,13.55
2018-05-12T03:01:11.454Z,14.11
2018-05-12T03:07:12.182Z,14.8
2018-05-12T03:11:12.927Z,14.37
2018-05-12T03:17:13.595Z,15.31
2018-05-12T03:21:14.316Z,15.54
2018-05-12T03:23:15.040Z,14.52
2018-05-12T03:27:15.891Z,14.98
2018-05-12T03:33:16.698Z,15.99
2018-05-12T03:37:17.364Z,15.07
2018-05-12T03:43:18.279Z,14.67
2018-05-12T03:47:19.127Z,15.02
2018-05-12T03:49:19.854Z,15.45
2018-05-12T03:53:20.583Z,16.15
2018-05-12T03:59:21.365Z,17.71
2018-05-12T04:03:22.105Z,15.84
2018-05-12T04:09:22.891Z,15.67
2018-05-12T04:15:24.396Z,15.89
2018-05-12T04:19:25.140Z,15.52
2018-05-12T04:25:25.917Z,17.83
2018-05-12T04:29:26.816Z,17.61
2018-05-12T04:31:27.574Z,19.37
2018-05-12T04:35:28.367Z,18.34
2018-05-12T04:41:29.102Z,19.72
2018-05-12T04:45:30.401Z,17.9
2018-05-12T04:51:31.196Z,18.73
2018-05-12T04:57:31.956Z,17.68
2018-05-12T05:01:32.648Z,17.19
2018-05-12T05:07:33.464Z,18.58
2018-05-12T05:11:34.265Z,18.73
2018-05-12T05:13:34.944Z,19.14
2018-05-12T05:17:35.660Z,18.24
2018-05-12T05:23:36.487Z,17.77
2018-05-12T05:27:37.323Z,16.83
2018-05-12T05:33:38.110Z,16.53
2018-05-12T05:37:38.887Z,17.08
2018-05-12T05:39:39.670Z,16.35
2018-05-12T05:43:40.395Z,16.43
2018-05-12T05:49:41.129Z,18.28
2018-05-12T05:53:41.806Z,18.42
2018-05-12T05:59:42.544Z,18.54
2018-05-12T06:05:43.592Z,21.05
2018-05-12T06:09:44.392Z,19.43
2018-05-12T06:15:45.205Z,21.23
2018-05-12T06:19:46.041Z,21.2
2018-05-12T06:21:46.789Z,22.61
2018-05-12T06:25:47.597Z,22.07
2018-05-12T06:31:48.305Z,20.27
2018-05-12T06:35:49.037Z,19.51
2018-05-12T06:41:49.921Z,22.28
2018-05-12T06:47:50.674Z,22.63
2018-05-12T06:51:51.575Z,23.03
2018-05-12T06:57:53.329Z,19.91
2018-05-12T07:01:54.038Z,20.53
2018-05-12T07:07:54.886Z,16.91
2018-05-12T07:13:55.946Z,16.78
2018-05-12T07:17:56.613Z,16.82
2018-05-12T07:23:57.428Z,16.09
2018-05-12T07:27:58.228Z,15.52
2018-05-12T07:29:59.063Z,17.21
2018-05-12T07:33:59.926Z,17.14
2018-05-12T07:40:00.575Z,16.43
2018-05-12T07:44:01.583Z,16.41
2018-05-12T07:50:03.115Z,17.99
2018-05-12T07:56:03.921Z,17.34
2018-05-12T08:00:04.771Z,18.36
2018-05-12T08:06:05.531Z,20.09
2018-05-12T08:10:06.299Z,19.75
2018-05-12T08:12:07.000Z,19.23
2018-05-12T08:16:07.713Z,18.98
2018-05-12T08:22:08.339Z,18.39
2018-05-12T08:26:09.126Z,17.05
2018-05-12T08:32:09.996Z,18.01
2018-05-12T08:38:10.759Z,17.72
2018-05-12T08:42:11.413Z,17.59
2018-05-12T08:48:12.277Z,19.66
2018-05-12T08:52:12.909Z,19.65
2018-05-12T08:54:13.767Z,18.82
2018-05-12T08:58:14.689Z,20.07
2018-05-12T09:04:15.409Z,17.1
2018-05-12T09:08:16.102Z,14.88
2018-05-12T09:14:16.991Z,12.61
2018-05-12T09:18:17.903Z,12.83
2018-05-12T09:20:18.647Z,12.61
2018-05-12T09:24:19.324Z,12.7
2018-05-12T09:30:20.216Z,13.82
2018-05-12T09:34:21.063Z,13.07
2018-05-12T09:40:21.818Z,12.53
2018-05-12T09:46:22.586Z,12.26
2018-05-12T09:50:23.285Z,12.68
2018-05-12T09:56:23.979Z,12.47
2018-05-12T10:00:25.285Z,12.57
2018-05-12T10:02:25.945Z,13.05
2018-05-12T10:06:26.656Z,13.63
2018-05-12T10:12:27.460Z,14.05
2018-05-12T10:16:28.175Z,15.09
2018-05-12T10:22:28.933Z,14.08
2018-05-12T10:26:29.689Z,12.64
2018-05-12T10:28:30.359Z,13.22
2018-05-12T10:32:31.070Z,12.62
2018-05-12T10:38:31.921Z,14.04
2018-05-12T10:42:32.749Z,13.55
2018-05-12T10:48:33.559Z,12.95
2018-05-12T10:54:34.255Z,13.77
2018-05-12T10:58:35.105Z,13.81
2018-05-12T11:04:35.918Z,13.28
2018-05-12T11:08:36.637Z,12.67
2018-05-12T11:15:38.058Z,12.01
2018-05-12T11:19:38.886Z,12.28
2018-05-12T11:25:39.651Z,9.34
2018-05-12T11:29:40.864Z,9.32
2018-05-12T11:31:41.685Z,9.45
2018-05-12T11:35:42.597Z,9.8
2018-05-12T11:41:46.533Z,10.18
2018-05-12T11:45:47.349Z,10.44
2018-05-12T11:51:48.235Z,11.49
2018-05-12T11:55:48.910Z,10.85
2018-05-12T11:57:50.781Z,11.26
2018-05-12T12:01:51.480Z,10.65
2018-05-12T12:07:52.977Z,10.25
2018-05-12T12:11:54.151Z,10.56
2018-05-12T12:17:55.010Z,10.87
2018-05-12T12:23:55.745Z,10.63
2018-05-12T12:27:56.522Z,9.84
2018-05-12T12:33:57.291Z,10.19
2018-05-12T12:37:58.193Z,9.83
2018-05-12T12:43:58.888Z,9.67
2018-05-12T12:49:59.599Z,9.6
2018-05-12T12:54:00.396Z,9.33
2018-05-12T13:00:01.158Z,10.06
2018-05-12T13:04:01.952Z,9.32
2018-05-12T13:06:02.841Z,9.65
2018-05-12T13:10:03.516Z,9.59
2018-05-12T13:16:04.257Z,9.52
2018-05-12T13:20:05.081Z,9.51
2018-05-12T13:26:05.721Z,8.96
2018-05-12T13:32:06.803Z,9.62
2018-05-12T13:36:07.537Z,8.59
2018-05-12T13:42:08.283Z,8.59
2018-05-12T13:46:09.048Z,8.19
2018-05-12T13:48:09.646Z,8.36
2018-05-12T13:52:10.456Z,8.15
2018-05-12T13:58:11.257Z,8.6
2018-05-12T14:02:11.975Z,8.08
2018-05-12T14:08:12.751Z,8.62
2018-05-12T14:14:13.568Z,7.84
2018-05-12T14:18:14.296Z,7.26
2018-05-12T14:24:15.060Z,8.07
2018-05-12T14:28:15.763Z,7.63
2018-05-12T14:34:16.486Z,7.8
2018-05-12T14:40:17.252Z,7.98
2018-05-12T14:44:17.948Z,7.68
2018-05-12T14:50:18.760Z,8.14
2018-05-12T14:54:19.556Z,7.81
2018-05-12T14:56:20.267Z,8.08
2018-05-12T15:00:21.480Z,7.85
2018-05-12T15:06:22.416Z,8.03
2018-05-12T15:10:23.152Z,8.03
2018-05-12T15:16:23.933Z,7.69
2018-05-12T15:22:24.677Z,7.34
2018-05-12T15:26:25.458Z,6.85
2018-05-12T15:32:26.221Z,8.12
2018-05-12T15:36:26.941Z,7.6
2018-05-12T15:38:27.736Z,7.28
2018-05-12T15:42:28.613Z,7.18
2018-05-12T15:48:29.422Z,8.06
2018-05-12T15:52:30.148Z,7.87
2018-05-12T15:58:30.997Z,8.48
2018-05-12T16:02:31.839Z,7.61
2018-05-12T16:04:32.576Z,8.36
2018-05-12T16:08:33.413Z,7.78
2018-05-12T16:14:34.241Z,7.86
2018-05-12T16:18:34.993Z,7.63
2018-05-12T16:24:35.735Z,7.22
2018-05-12T16:30:36.441Z,7.45
2018-05-12T16:34:37.218Z,7.36
2018-05-12T16:40:38.163Z,8.64
2018-05-12T16:44:39.597Z,8.02
2018-05-12T16:46:40.500Z,7.4
2018-05-12T16:50:41.339Z,7.62
2018-05-12T16:56:42.046Z,7.54
2018-05-12T17:00:42.891Z,7.07
2018-05-12T17:06:43.729Z,7.9
2018-05-12T17:12:44.547Z,7.57
2018-05-12T17:16:45.298Z,6.93
2018-05-12T17:22:46.106Z,8.17
2018-05-12T17:26:46.829Z,7.75
2018-05-12T17:32:48.173Z,8.12
2018-05-12T17:38:49.063Z,8.46
2018-05-12T17:42:49.837Z,7.63
2018-05-12T17:48:50.610Z,8.09
2018-05-12T17:52:51.362Z,8.08
2018-05-12T17:54:52.211Z,8.91
2018-05-12T17:58:52.969Z,8.55
2018-05-12T18:04:53.719Z,7.94
2018-05-12T18:08:54.480Z,7.66
2018-05-12T18:14:55.258Z,9.72
2018-05-12T18:20:55.981Z,11.62
2018-05-12T18:24:56.903Z,11.78
2018-05-12T18:30:57.683Z,11.12
2018-05-12T18:34:58.434Z,10.93
2018-05-12T18:36:59.293Z,11.37
2018-05-12T18:41:00.344Z,10.74
2018-05-12T18:47:01.102Z,11.8
2018-05-12T18:51:01.870Z,12.1
2018-05-12T18:57:02.639Z,11.05
2018-05-12T19:01:03.474Z,10.49
2018-05-12T19:03:04.209Z,10.9
2018-05-12T19:07:04.914Z,11.05
2018-05-12T19:13:05.675Z,10.86
2018-05-12T19:17:06.396Z,11.18
2018-05-12T19:23:07.102Z,10.68
2018-05-12T19:29:07.862Z,11.97
2018-05-12T19:33:08.657Z,11.34
2018-05-12T19:39:09.559Z,11.2
2018-05-12T19:43:10.441Z,12.56
2018-05-12T19:45:11.524Z,11.57
2018-05-12T19:49:17.018Z,11.63
2018-05-12T19:55:18.155Z,15.98
2018-05-12T19:59:19.052Z,13.91
2018-05-12T20:05:20.165Z,12.64
2018-05-12T20:09:21.011Z,12.18
2018-05-12T20:11:21.988Z,13.4
2018-05-12T20:15:23.099Z,12.67
2018-05-12T20:21:23.985Z,12.79
2018-05-12T20:25:24.797Z,12.05
2018-05-12T20:31:25.503Z,12.31
2018-05-12T20:37:26.398Z,18.23
2018-05-12T20:41:27.117Z,19.87
2018-05-12T20:47:28.021Z,13.27
2018-05-12T20:51:28.763Z,12.73
2018-05-12T20:51:28.799Z,12.73
2018-05-12T20:53:29.490Z,13.38
2018-05-12T20:57:30.300Z,12.2
2018-05-12T21:03:31.150Z,12.06
2018-05-12T21:07:31.862Z,12.07
2018-05-12T21:13:32.671Z,12.37
2018-05-12T21:17:33.434Z,12.32
2018-05-12T21:19:34.149Z,11.64
2018-05-12T21:23:34.976Z,11.89
2018-05-12T21:29:35.756Z,13.47
2018-05-12T21:33:36.465Z,13.26
2018-05-12T21:39:37.224Z,12.58
2018-05-12T21:45:38.105Z,12.24
2018-05-12T21:49:38.842Z,11.67
2018-05-12T21:55:39.720Z,13.39
2018-05-12T21:59:40.454Z,13.66
2018-05-12T22:01:41.193Z,12.58
2018-05-12T22:05:41.992Z,12.62
2018-05-12T22:11:42.810Z,12.76
2018-05-12T22:15:43.628Z,12.17
2018-05-12T22:21:44.317Z,13.11
2018-05-12T22:27:45.167Z,12.5
2018-05-12T22:31:45.887Z,13.62
2018-05-12T22:37:46.646Z,18.24
2018-05-12T22:41:47.391Z,18.03
2018-05-12T22:47:48.240Z,15.17
2018-05-12T22:53:48.991Z,16.42
2018-05-12T22:57:49.796Z,15.35
2018-05-12T23:03:50.460Z,15.35
2018-05-12T23:07:51.201Z,15.72
2018-05-12T23:09:52.082Z,14.23
2018-05-12T23:13:52.694Z,14.2
2018-05-12T23:19:53.408Z,14.7
2018-05-12T23:23:54.163Z,13.97
2018-05-12T23:29:54.925Z,16.36
2018-05-12T23:35:55.708Z,16.05
2018-05-12T23:39:56.485Z,15.84
2018-05-12T23:45:57.189Z,16.2
2018-05-12T23:49:57.909Z,16.59
2018-05-12T23:51:58.630Z,16.23
2018-05-12T23:55:59.314Z,16.1
